sensor_id;sensor_type;location;lat;lon;timestamp;P1;durP1;ratioP1;P2;durP2;ratioP2
48578;SDS011;34357;51.948;6.132;2022-09-03T00:01:58;6.30;;;1.30;;
48578;SDS011;34357;51.948;6.132;2022-09-03T00:04:31;4.38;;;1.10;;
48578;SDS011;34357;51.948;6.132;2022-09-03T00:07:15;4.38;;;1.35;;
48578;SDS011;34357;51.948;6.132;2022-09-03T00:09:48;3.42;;;1.38;;
48578;SDS011;34357;51.948;6.132;2022-09-03T00:12:21;2.65;;;0.93;;
48578;SDS011;34357;51.948;6.132;2022-09-03T00:17:41;1.45;;;0.90;;
48578;SDS011;34357;51.948;6.132;2022-09-03T00:20:12;4.30;;;1.02;;
48578;SDS011;34357;51.948;6.132;2022-09-03T00:22:52;2.70;;;1.10;;
48578;SDS011;34357;51.948;6.132;2022-09-03T00:25:43;3.30;;;1.20;;
48578;SDS011;34357;51.948;6.132;2022-09-03T00:30:59;4.00;;;1.15;;
48578;SDS011;34357;51.948;6.132;2022-09-03T00:33:39;3.17;;;1.27;;
48578;SDS011;34357;51.948;6.132;2022-09-03T00:38:44;2.28;;;0.93;;
48578;SDS011;34357;51.948;6.132;2022-09-03T01:00:35;3.72;;;1.00;;
48578;SDS011;34357;51.948;6.132;2022-09-03T01:03:10;2.47;;;0.98;;
48578;SDS011;34357;51.948;6.132;2022-09-03T01:08:54;2.27;;;1.33;;
48578;SDS011;34357;51.948;6.132;2022-09-03T01:14:58;5.07;;;1.30;;
48578;SDS011;34357;51.948;6.132;2022-09-03T01:17:49;2.97;;;1.33;;
48578;SDS011;34357;51.948;6.132;2022-09-03T01:23:54;1.42;;;1.00;;
48578;SDS011;34357;51.948;6.132;2022-09-03T01:45:34;5.25;;;1.25;;
48578;SDS011;34357;51.948;6.132;2022-09-03T01:48:30;4.35;;;1.02;;
48578;SDS011;34357;51.948;6.132;2022-09-03T01:59:50;2.50;;;1.15;;
48578;SDS011;34357;51.948;6.132;2022-09-03T02:02:23;6.38;;;1.42;;
48578;SDS011;34357;51.948;6.132;2022-09-03T02:05:02;4.55;;;1.20;;
48578;SDS011;34357;51.948;6.132;2022-09-03T02:07:44;2.17;;;1.00;;
48578;SDS011;34357;51.948;6.132;2022-09-03T02:10:27;3.08;;;1.02;;
48578;SDS011;34357;51.948;6.132;2022-09-03T02:12:58;4.72;;;1.40;;
48578;SDS011;34357;51.948;6.132;2022-09-03T02:15:39;3.70;;;1.40;;
48578;SDS011;34357;51.948;6.132;2022-09-03T02:18:09;2.60;;;1.33;;
48578;SDS011;34357;51.948;6.132;2022-09-03T02:20:41;3.58;;;1.27;;
48578;SDS011;34357;51.948;6.132;2022-09-03T02:23:07;2.00;;;1.20;;
48578;SDS011;34357;51.948;6.132;2022-09-03T02:25:36;2.00;;;1.10;;
48578;SDS011;34357;51.948;6.132;2022-09-03T02:28:05;2.80;;;0.95;;
48578;SDS011;34357;51.948;6.132;2022-09-03T02:30:33;1.88;;;0.98;;
48578;SDS011;34357;51.948;6.132;2022-09-03T02:32:59;3.25;;;1.38;;
48578;SDS011;34357;51.948;6.132;2022-09-03T02:35:25;2.85;;;1.30;;
48578;SDS011;34357;51.948;6.132;2022-09-03T02:37:51;4.13;;;1.00;;
48578;SDS011;34357;51.948;6.132;2022-09-03T02:40:16;1.65;;;1.02;;
48578;SDS011;34357;51.948;6.132;2022-09-03T02:42:42;3.92;;;1.10;;
48578;SDS011;34357;51.948;6.132;2022-09-03T02:47:51;3.97;;;1.00;;
48578;SDS011;34357;51.948;6.132;2022-09-03T02:50:23;4.03;;;1.48;;
48578;SDS011;34357;51.948;6.132;2022-09-03T02:52:49;7.90;;;1.10;;
48578;SDS011;34357;51.948;6.132;2022-09-03T02:55:15;5.38;;;1.10;;
48578;SDS011;34357;51.948;6.132;2022-09-03T02:57:41;4.32;;;1.27;;
48578;SDS011;34357;51.948;6.132;2022-09-03T03:00:07;3.17;;;1.00;;
48578;SDS011;34357;51.948;6.132;2022-09-03T03:02:34;4.47;;;1.30;;
48578;SDS011;34357;51.948;6.132;2022-09-03T03:04:59;3.30;;;1.20;;
48578;SDS011;34357;51.948;6.132;2022-09-03T03:07:26;6.55;;;1.20;;
48578;SDS011;34357;51.948;6.132;2022-09-03T03:09:55;4.60;;;1.20;;
48578;SDS011;34357;51.948;6.132;2022-09-03T03:12:21;2.80;;;1.13;;
48578;SDS011;34357;51.948;6.132;2022-09-03T03:14:47;3.00;;;1.05;;
48578;SDS011;34357;51.948;6.132;2022-09-03T03:17:13;2.13;;;1.02;;
48578;SDS011;34357;51.948;6.132;2022-09-03T03:19:39;2.15;;;1.30;;
48578;SDS011;34357;51.948;6.132;2022-09-03T03:22:04;7.28;;;1.20;;
48578;SDS011;34357;51.948;6.132;2022-09-03T03:24:30;2.10;;;1.25;;
48578;SDS011;34357;51.948;6.132;2022-09-03T03:26:56;3.17;;;1.20;;
48578;SDS011;34357;51.948;6.132;2022-09-03T03:29:23;3.83;;;1.15;;
48578;SDS011;34357;51.948;6.132;2022-09-03T03:31:49;4.18;;;1.35;;
48578;SDS011;34357;51.948;6.132;2022-09-03T03:34:15;1.70;;;1.25;;
48578;SDS011;34357;51.948;6.132;2022-09-03T03:36:41;5.20;;;1.30;;
48578;SDS011;34357;51.948;6.132;2022-09-03T03:39:07;3.35;;;1.17;;
48578;SDS011;34357;51.948;6.132;2022-09-03T03:41:33;4.85;;;1.10;;
48578;SDS011;34357;51.948;6.132;2022-09-03T03:44:01;3.38;;;1.08;;
48578;SDS011;34357;51.948;6.132;2022-09-03T03:46:38;5.18;;;1.30;;
48578;SDS011;34357;51.948;6.132;2022-09-03T03:49:06;1.85;;;1.30;;
48578;SDS011;34357;51.948;6.132;2022-09-03T03:51:32;4.15;;;1.20;;
48578;SDS011;34357;51.948;6.132;2022-09-03T03:53:59;4.72;;;1.33;;
48578;SDS011;34357;51.948;6.132;2022-09-03T03:56:25;3.10;;;1.00;;
48578;SDS011;34357;51.948;6.132;2022-09-03T03:58:51;3.08;;;1.15;;
48578;SDS011;34357;51.948;6.132;2022-09-03T04:01:19;4.75;;;1.40;;
48578;SDS011;34357;51.948;6.132;2022-09-03T04:03:46;3.88;;;0.98;;
48578;SDS011;34357;51.948;6.132;2022-09-03T04:06:13;3.15;;;1.00;;
48578;SDS011;34357;51.948;6.132;2022-09-03T04:08:41;2.45;;;1.02;;
48578;SDS011;34357;51.948;6.132;2022-09-03T04:11:09;3.83;;;1.30;;
48578;SDS011;34357;51.948;6.132;2022-09-03T04:13:38;1.85;;;1.15;;
48578;SDS011;34357;51.948;6.132;2022-09-03T04:18:38;5.22;;;1.00;;
48578;SDS011;34357;51.948;6.132;2022-09-03T04:21:05;1.98;;;1.00;;
48578;SDS011;34357;51.948;6.132;2022-09-03T04:23:34;1.67;;;1.00;;
48578;SDS011;34357;51.948;6.132;2022-09-03T04:26:04;1.42;;;1.00;;
48578;SDS011;34357;51.948;6.132;2022-09-03T04:28:31;1.60;;;1.17;;
48578;SDS011;34357;51.948;6.132;2022-09-03T04:31:04;1.58;;;0.93;;
48578;SDS011;34357;51.948;6.132;2022-09-03T04:33:32;2.45;;;1.17;;
48578;SDS011;34357;51.948;6.132;2022-09-03T04:36:09;7.15;;;1.08;;
48578;SDS011;34357;51.948;6.132;2022-09-03T04:38:41;2.88;;;1.23;;
48578;SDS011;34357;51.948;6.132;2022-09-03T04:41:09;4.60;;;1.13;;
48578;SDS011;34357;51.948;6.132;2022-09-03T04:43:37;5.78;;;1.15;;
48578;SDS011;34357;51.948;6.132;2022-09-03T04:46:04;4.35;;;1.30;;
48578;SDS011;34357;51.948;6.132;2022-09-03T04:48:31;4.78;;;1.20;;
48578;SDS011;34357;51.948;6.132;2022-09-03T04:51:02;3.42;;;1.00;;
48578;SDS011;34357;51.948;6.132;2022-09-03T04:53:36;4.68;;;1.20;;
48578;SDS011;34357;51.948;6.132;2022-09-03T04:56:10;2.92;;;1.15;;
48578;SDS011;34357;51.948;6.132;2022-09-03T04:58:41;2.67;;;1.25;;
48578;SDS011;34357;51.948;6.132;2022-09-03T05:01:11;4.35;;;1.00;;
48578;SDS011;34357;51.948;6.132;2022-09-03T05:03:42;2.92;;;1.10;;
48578;SDS011;34357;51.948;6.132;2022-09-03T05:06:08;2.80;;;1.00;;
48578;SDS011;34357;51.948;6.132;2022-09-03T05:08:34;2.45;;;1.20;;
48578;SDS011;34357;51.948;6.132;2022-09-03T05:11:01;3.97;;;0.90;;
48578;SDS011;34357;51.948;6.132;2022-09-03T05:13:28;5.38;;;1.55;;
48578;SDS011;34357;51.948;6.132;2022-09-03T05:16:00;2.38;;;1.02;;
48578;SDS011;34357;51.948;6.132;2022-09-03T05:18:30;3.13;;;1.30;;
48578;SDS011;34357;51.948;6.132;2022-09-03T05:21:00;2.70;;;1.35;;
48578;SDS011;34357;51.948;6.132;2022-09-03T05:23:30;1.98;;;0.93;;
48578;SDS011;34357;51.948;6.132;2022-09-03T05:26:00;3.53;;;1.08;;
48578;SDS011;34357;51.948;6.132;2022-09-03T05:28:28;1.88;;;0.98;;
48578;SDS011;34357;51.948;6.132;2022-09-03T05:30:58;6.78;;;1.08;;
48578;SDS011;34357;51.948;6.132;2022-09-03T05:33:24;2.80;;;1.02;;
48578;SDS011;34357;51.948;6.132;2022-09-03T05:35:52;2.13;;;0.90;;
48578;SDS011;34357;51.948;6.132;2022-09-03T05:38:19;4.03;;;1.00;;
48578;SDS011;34357;51.948;6.132;2022-09-03T05:40:45;6.13;;;1.50;;
48578;SDS011;34357;51.948;6.132;2022-09-03T05:43:10;3.30;;;1.10;;
48578;SDS011;34357;51.948;6.132;2022-09-03T05:45:36;1.42;;;0.93;;
48578;SDS011;34357;51.948;6.132;2022-09-03T05:48:02;5.55;;;1.10;;
48578;SDS011;34357;51.948;6.132;2022-09-03T05:50:27;7.03;;;1.25;;
48578;SDS011;34357;51.948;6.132;2022-09-03T05:52:53;3.85;;;0.98;;
48578;SDS011;34357;51.948;6.132;2022-09-03T05:55:19;5.88;;;1.35;;
48578;SDS011;34357;51.948;6.132;2022-09-03T05:57:44;5.30;;;0.98;;
48578;SDS011;34357;51.948;6.132;2022-09-03T06:00:16;4.70;;;1.70;;
48578;SDS011;34357;51.948;6.132;2022-09-03T06:02:42;5.05;;;1.15;;
48578;SDS011;34357;51.948;6.132;2022-09-03T06:05:13;4.22;;;1.15;;
48578;SDS011;34357;51.948;6.132;2022-09-03T06:07:40;8.02;;;1.15;;
48578;SDS011;34357;51.948;6.132;2022-09-03T06:10:06;3.38;;;0.80;;
48578;SDS011;34357;51.948;6.132;2022-09-03T06:12:32;6.22;;;1.15;;
48578;SDS011;34357;51.948;6.132;2022-09-03T06:15:00;4.18;;;1.23;;
48578;SDS011;34357;51.948;6.132;2022-09-03T06:17:25;1.70;;;0.70;;
48578;SDS011;34357;51.948;6.132;2022-09-03T06:19:51;2.42;;;0.80;;
48578;SDS011;34357;51.948;6.132;2022-09-03T06:22:16;8.52;;;1.08;;
48578;SDS011;34357;51.948;6.132;2022-09-03T06:24:42;5.40;;;1.17;;
48578;SDS011;34357;51.948;6.132;2022-09-03T06:27:08;3.42;;;0.90;;
48578;SDS011;34357;51.948;6.132;2022-09-03T06:29:36;1.75;;;0.80;;
48578;SDS011;34357;51.948;6.132;2022-09-03T06:32:15;3.67;;;0.80;;
48578;SDS011;34357;51.948;6.132;2022-09-03T06:34:40;3.55;;;1.05;;
48578;SDS011;34357;51.948;6.132;2022-09-03T06:37:06;5.78;;;0.80;;
48578;SDS011;34357;51.948;6.132;2022-09-03T06:39:32;2.40;;;0.80;;
48578;SDS011;34357;51.948;6.132;2022-09-03T06:41:58;6.00;;;0.95;;
48578;SDS011;34357;51.948;6.132;2022-09-03T06:44:31;4.07;;;0.90;;
48578;SDS011;34357;51.948;6.132;2022-09-03T06:46:57;5.10;;;0.98;;
48578;SDS011;34357;51.948;6.132;2022-09-03T06:49:25;3.35;;;0.90;;
48578;SDS011;34357;51.948;6.132;2022-09-03T06:51:51;4.53;;;1.10;;
48578;SDS011;34357;51.948;6.132;2022-09-03T06:54:17;6.85;;;1.23;;
48578;SDS011;34357;51.948;6.132;2022-09-03T06:56:42;4.50;;;1.33;;
48578;SDS011;34357;51.948;6.132;2022-09-03T06:59:12;3.53;;;0.98;;
48578;SDS011;34357;51.948;6.132;2022-09-03T07:01:39;6.32;;;1.00;;
48578;SDS011;34357;51.948;6.132;2022-09-03T07:04:06;5.22;;;1.20;;
48578;SDS011;34357;51.948;6.132;2022-09-03T07:06:34;5.10;;;1.00;;
48578;SDS011;34357;51.948;6.132;2022-09-03T07:09:02;5.57;;;1.05;;
48578;SDS011;34357;51.948;6.132;2022-09-03T07:11:31;6.90;;;1.17;;
48578;SDS011;34357;51.948;6.132;2022-09-03T07:13:59;2.85;;;0.90;;
48578;SDS011;34357;51.948;6.132;2022-09-03T07:16:27;4.88;;;1.00;;
48578;SDS011;34357;51.948;6.132;2022-09-03T07:18:54;3.80;;;1.00;;
48578;SDS011;34357;51.948;6.132;2022-09-03T07:21:24;6.35;;;1.08;;
48578;SDS011;34357;51.948;6.132;2022-09-03T07:23:52;5.43;;;0.98;;
48578;SDS011;34357;51.948;6.132;2022-09-03T07:26:28;6.45;;;1.08;;
48578;SDS011;34357;51.948;6.132;2022-09-03T07:28:56;7.88;;;1.20;;
48578;SDS011;34357;51.948;6.132;2022-09-03T07:31:25;3.97;;;0.90;;
48578;SDS011;34357;51.948;6.132;2022-09-03T07:33:53;4.60;;;0.80;;
48578;SDS011;34357;51.948;6.132;2022-09-03T07:36:24;8.07;;;0.95;;
48578;SDS011;34357;51.948;6.132;2022-09-03T07:38:55;4.40;;;1.15;;
48578;SDS011;34357;51.948;6.132;2022-09-03T07:41:22;4.23;;;0.77;;
48578;SDS011;34357;51.948;6.132;2022-09-03T07:43:50;6.93;;;1.10;;
48578;SDS011;34357;51.948;6.132;2022-09-03T07:46:18;9.32;;;1.23;;
48578;SDS011;34357;51.948;6.132;2022-09-03T07:48:49;5.30;;;0.90;;
48578;SDS011;34357;51.948;6.132;2022-09-03T07:51:16;3.40;;;0.70;;
48578;SDS011;34357;51.948;6.132;2022-09-03T07:53:47;5.35;;;1.55;;
48578;SDS011;34357;51.948;6.132;2022-09-03T07:56:13;6.97;;;1.13;;
48578;SDS011;34357;51.948;6.132;2022-09-03T07:58:40;3.78;;;1.20;;
48578;SDS011;34357;51.948;6.132;2022-09-03T08:01:10;4.20;;;0.80;;
48578;SDS011;34357;51.948;6.132;2022-09-03T08:06:06;8.13;;;0.98;;
48578;SDS011;34357;51.948;6.132;2022-09-03T08:08:33;2.97;;;1.15;;
48578;SDS011;34357;51.948;6.132;2022-09-03T08:11:03;2.47;;;0.85;;
48578;SDS011;34357;51.948;6.132;2022-09-03T08:13:45;3.53;;;0.88;;
48578;SDS011;34357;51.948;6.132;2022-09-03T08:16:16;4.38;;;1.10;;
48578;SDS011;34357;51.948;6.132;2022-09-03T08:18:42;1.75;;;0.80;;
48578;SDS011;34357;51.948;6.132;2022-09-03T08:21:10;2.13;;;0.98;;
48578;SDS011;34357;51.948;6.132;2022-09-03T08:23:40;2.77;;;0.80;;
48578;SDS011;34357;51.948;6.132;2022-09-03T08:26:07;4.90;;;1.05;;
48578;SDS011;34357;51.948;6.132;2022-09-03T08:28:35;3.55;;;0.80;;
48578;SDS011;34357;51.948;6.132;2022-09-03T08:33:42;4.47;;;1.13;;
48578;SDS011;34357;51.948;6.132;2022-09-03T08:36:16;2.38;;;1.00;;
48578;SDS011;34357;51.948;6.132;2022-09-03T08:38:44;1.65;;;0.88;;
48578;SDS011;34357;51.948;6.132;2022-09-03T08:47:06;3.33;;;0.70;;
48578;SDS011;34357;51.948;6.132;2022-09-03T08:49:50;1.08;;;0.75;;
48578;SDS011;34357;51.948;6.132;2022-09-03T08:52:33;6.53;;;1.00;;
48578;SDS011;34357;51.948;6.132;2022-09-03T08:58:01;2.25;;;0.80;;
48578;SDS011;34357;51.948;6.132;2022-09-03T09:17:31;2.95;;;0.90;;
48578;SDS011;34357;51.948;6.132;2022-09-03T09:22:55;2.72;;;0.88;;
48578;SDS011;34357;51.948;6.132;2022-09-03T09:25:25;3.95;;;0.85;;
48578;SDS011;34357;51.948;6.132;2022-09-03T09:27:58;6.28;;;0.98;;
48578;SDS011;34357;51.948;6.132;2022-09-03T09:30:27;4.45;;;1.20;;
48578;SDS011;34357;51.948;6.132;2022-09-03T09:32:54;4.63;;;0.70;;
48578;SDS011;34357;51.948;6.132;2022-09-03T09:35:20;3.30;;;0.98;;
48578;SDS011;34357;51.948;6.132;2022-09-03T09:40:21;4.50;;;1.00;;
48578;SDS011;34357;51.948;6.132;2022-09-03T09:45:41;3.03;;;1.00;;
48578;SDS011;34357;51.948;6.132;2022-09-03T09:48:12;5.65;;;1.10;;
48578;SDS011;34357;51.948;6.132;2022-09-03T09:50:47;2.95;;;1.33;;
48578;SDS011;34357;51.948;6.132;2022-09-03T09:53:13;3.67;;;0.90;;
48578;SDS011;34357;51.948;6.132;2022-09-03T09:55:52;2.15;;;0.90;;
48578;SDS011;34357;51.948;6.132;2022-09-03T09:58:21;3.70;;;1.10;;
48578;SDS011;34357;51.948;6.132;2022-09-03T10:03:47;7.43;;;1.15;;
48578;SDS011;34357;51.948;6.132;2022-09-03T10:06:24;3.60;;;0.90;;
48578;SDS011;34357;51.948;6.132;2022-09-03T10:09:12;2.55;;;0.82;;
48578;SDS011;34357;51.948;6.132;2022-09-03T10:11:42;8.75;;;1.00;;
48578;SDS011;34357;51.948;6.132;2022-09-03T10:14:32;3.90;;;0.80;;
48578;SDS011;34357;51.948;6.132;2022-09-03T10:20:12;2.65;;;0.90;;
48578;SDS011;34357;51.948;6.132;2022-09-03T10:22:55;1.73;;;0.90;;
48578;SDS011;34357;51.948;6.132;2022-09-03T10:25:34;5.38;;;0.98;;
48578;SDS011;34357;51.948;6.132;2022-09-03T10:28:23;5.35;;;1.08;;
48578;SDS011;34357;51.948;6.132;2022-09-03T10:33:35;4.82;;;1.05;;
48578;SDS011;34357;51.948;6.132;2022-09-03T10:36:18;6.75;;;1.08;;
48578;SDS011;34357;51.948;6.132;2022-09-03T10:38:52;2.85;;;0.88;;
48578;SDS011;34357;51.948;6.132;2022-09-03T10:41:32;4.53;;;1.20;;
48578;SDS011;34357;51.948;6.132;2022-09-03T10:47:03;2.53;;;0.90;;
48578;SDS011;34357;51.948;6.132;2022-09-03T10:52:40;5.53;;;1.10;;
48578;SDS011;34357;51.948;6.132;2022-09-03T10:56:05;1.23;;;0.80;;
48578;SDS011;34357;51.948;6.132;2022-09-03T11:00:57;6.43;;;0.82;;
48578;SDS011;34357;51.948;6.132;2022-09-03T11:07:04;5.05;;;0.90;;
48578;SDS011;34357;51.948;6.132;2022-09-03T11:11:57;3.70;;;1.10;;
48578;SDS011;34357;51.948;6.132;2022-09-03T11:14:34;5.00;;;1.10;;
48578;SDS011;34357;51.948;6.132;2022-09-03T11:17:11;3.60;;;0.90;;
48578;SDS011;34357;51.948;6.132;2022-09-03T11:19:49;3.45;;;0.75;;
48578;SDS011;34357;51.948;6.132;2022-09-03T11:22:34;6.32;;;1.00;;
48578;SDS011;34357;51.948;6.132;2022-09-03T11:25:03;4.88;;;1.10;;
48578;SDS011;34357;51.948;6.132;2022-09-03T11:27:34;2.55;;;1.10;;
48578;SDS011;34357;51.948;6.132;2022-09-03T11:30:11;2.90;;;1.00;;
48578;SDS011;34357;51.948;6.132;2022-09-03T11:40:56;3.10;;;0.80;;
48578;SDS011;34357;51.948;6.132;2022-09-03T11:43:29;3.33;;;1.00;;
48578;SDS011;34357;51.948;6.132;2022-09-03T11:46:03;3.20;;;0.80;;
48578;SDS011;34357;51.948;6.132;2022-09-03T11:48:39;2.75;;;1.10;;
48578;SDS011;34357;51.948;6.132;2022-09-03T11:51:32;6.60;;;1.35;;
48578;SDS011;34357;51.948;6.132;2022-09-03T11:54:03;2.35;;;1.00;;
48578;SDS011;34357;51.948;6.132;2022-09-03T11:56:32;6.10;;;1.30;;
48578;SDS011;34357;51.948;6.132;2022-09-03T11:59:00;2.05;;;0.85;;
48578;SDS011;34357;51.948;6.132;2022-09-03T12:01:27;2.65;;;1.10;;
48578;SDS011;34357;51.948;6.132;2022-09-03T12:03:56;4.90;;;1.15;;
48578;SDS011;34357;51.948;6.132;2022-09-03T12:15:04;3.22;;;0.90;;
48578;SDS011;34357;51.948;6.132;2022-09-03T12:20:38;1.67;;;1.10;;
48578;SDS011;34357;51.948;6.132;2022-09-03T12:23:05;6.60;;;1.30;;
48578;SDS011;34357;51.948;6.132;2022-09-03T12:25:32;4.38;;;1.48;;
48578;SDS011;34357;51.948;6.132;2022-09-03T12:27:59;5.15;;;1.08;;
48578;SDS011;34357;51.948;6.132;2022-09-03T12:30:29;6.43;;;1.33;;
48578;SDS011;34357;51.948;6.132;2022-09-03T12:33:05;4.63;;;0.98;;
48578;SDS011;34357;51.948;6.132;2022-09-03T12:35:32;3.83;;;1.15;;
48578;SDS011;34357;51.948;6.132;2022-09-03T12:37:58;2.90;;;1.25;;
48578;SDS011;34357;51.948;6.132;2022-09-03T12:40:25;5.43;;;1.20;;
48578;SDS011;34357;51.948;6.132;2022-09-03T12:42:53;4.80;;;1.20;;
48578;SDS011;34357;51.948;6.132;2022-09-03T12:45:23;2.42;;;1.17;;
48578;SDS011;34357;51.948;6.132;2022-09-03T12:47:50;2.72;;;1.00;;
48578;SDS011;34357;51.948;6.132;2022-09-03T12:50:18;2.00;;;1.10;;
48578;SDS011;34357;51.948;6.132;2022-09-03T12:55:27;8.00;;;2.30;;
48578;SDS011;34357;51.948;6.132;2022-09-03T12:58:11;7.40;;;1.60;;
48578;SDS011;34357;51.948;6.132;2022-09-03T13:00:45;4.35;;;1.30;;
48578;SDS011;34357;51.948;6.132;2022-09-03T13:03:30;4.45;;;1.20;;
48578;SDS011;34357;51.948;6.132;2022-09-03T13:08:56;7.07;;;1.63;;
48578;SDS011;34357;51.948;6.132;2022-09-03T13:11:25;3.50;;;1.15;;
48578;SDS011;34357;51.948;6.132;2022-09-03T13:13:54;3.40;;;1.30;;
48578;SDS011;34357;51.948;6.132;2022-09-03T13:16:29;3.50;;;1.92;;
48578;SDS011;34357;51.948;6.132;2022-09-03T13:30:06;4.10;;;0.90;;
48578;SDS011;34357;51.948;6.132;2022-09-03T13:32:43;2.78;;;1.55;;
48578;SDS011;34357;51.948;6.132;2022-09-03T13:35:27;3.20;;;1.35;;
48578;SDS011;34357;51.948;6.132;2022-09-03T13:38:19;1.88;;;1.20;;
48578;SDS011;34357;51.948;6.132;2022-09-03T13:40:59;3.92;;;1.27;;
48578;SDS011;34357;51.948;6.132;2022-09-03T13:43:47;6.78;;;1.55;;
48578;SDS011;34357;51.948;6.132;2022-09-03T13:46:27;4.90;;;1.20;;
48578;SDS011;34357;51.948;6.132;2022-09-03T13:49:05;4.00;;;1.20;;
48578;SDS011;34357;51.948;6.132;2022-09-03T13:52:04;4.30;;;1.23;;
48578;SDS011;34357;51.948;6.132;2022-09-03T13:54:38;3.63;;;1.20;;
48578;SDS011;34357;51.948;6.132;2022-09-03T14:00:11;3.58;;;1.40;;
48578;SDS011;34357;51.948;6.132;2022-09-03T14:16:06;6.65;;;1.83;;
48578;SDS011;34357;51.948;6.132;2022-09-03T14:18:55;3.88;;;1.45;;
48578;SDS011;34357;51.948;6.132;2022-09-03T14:21:48;5.50;;;1.60;;
48578;SDS011;34357;51.948;6.132;2022-09-03T14:27:03;4.00;;;1.40;;
48578;SDS011;34357;51.948;6.132;2022-09-03T14:29:33;3.45;;;1.45;;
48578;SDS011;34357;51.948;6.132;2022-09-03T14:40:45;4.07;;;1.30;;
48578;SDS011;34357;51.948;6.132;2022-09-03T15:01:52;1.92;;;1.33;;
48578;SDS011;34357;51.948;6.132;2022-09-03T15:12:54;3.67;;;1.17;;
48578;SDS011;34357;51.948;6.132;2022-09-03T15:15:28;3.33;;;1.60;;
48578;SDS011;34357;51.948;6.132;2022-09-03T15:18:01;8.05;;;1.60;;
48578;SDS011;34357;51.948;6.132;2022-09-03T15:29:10;1.65;;;1.42;;
48578;SDS011;34357;51.948;6.132;2022-09-03T15:37:24;4.63;;;2.22;;
48578;SDS011;34357;51.948;6.132;2022-09-03T15:43:17;2.83;;;1.70;;
48578;SDS011;34357;51.948;6.132;2022-09-03T15:56:33;3.63;;;1.52;;
48578;SDS011;34357;51.948;6.132;2022-09-03T15:59:30;3.90;;;1.80;;
48578;SDS011;34357;51.948;6.132;2022-09-03T16:02:08;4.00;;;1.85;;
48578;SDS011;34357;51.948;6.132;2022-09-03T16:04:50;4.90;;;1.65;;
48578;SDS011;34357;51.948;6.132;2022-09-03T16:10:20;4.53;;;1.65;;
48578;SDS011;34357;51.948;6.132;2022-09-03T16:13:01;3.90;;;1.98;;
48578;SDS011;34357;51.948;6.132;2022-09-03T16:15:38;4.63;;;1.50;;
48578;SDS011;34357;51.948;6.132;2022-09-03T16:20:47;7.30;;;2.08;;
48578;SDS011;34357;51.948;6.132;2022-09-03T16:23:25;5.30;;;1.80;;
48578;SDS011;34357;51.948;6.132;2022-09-03T16:29:05;5.03;;;1.70;;
48578;SDS011;34357;51.948;6.132;2022-09-03T16:34:36;2.92;;;1.60;;
48578;SDS011;34357;51.948;6.132;2022-09-03T16:37:34;4.15;;;1.55;;
48578;SDS011;34357;51.948;6.132;2022-09-03T16:45:50;42.65;;;3.25;;
48578;SDS011;34357;51.948;6.132;2022-09-03T16:48:31;4.57;;;1.80;;
48578;SDS011;34357;51.948;6.132;2022-09-03T16:54:25;7.15;;;1.55;;
48578;SDS011;34357;51.948;6.132;2022-09-03T17:02:56;3.65;;;1.95;;
48578;SDS011;34357;51.948;6.132;2022-09-03T17:05:58;3.45;;;1.48;;
48578;SDS011;34357;51.948;6.132;2022-09-03T17:11:46;3.90;;;2.10;;
48578;SDS011;34357;51.948;6.132;2022-09-03T17:17:12;5.65;;;1.65;;
48578;SDS011;34357;51.948;6.132;2022-09-03T17:24:50;8.55;;;1.70;;
48578;SDS011;34357;51.948;6.132;2022-09-03T17:27:47;3.63;;;1.70;;
48578;SDS011;34357;51.948;6.132;2022-09-03T17:36:24;7.20;;;1.75;;
48578;SDS011;34357;51.948;6.132;2022-09-03T17:38:59;4.45;;;1.85;;
48578;SDS011;34357;51.948;6.132;2022-09-03T17:41:52;6.70;;;1.80;;
48578;SDS011;34357;51.948;6.132;2022-09-03T17:47:28;3.50;;;1.95;;
48578;SDS011;34357;51.948;6.132;2022-09-03T17:52:54;3.72;;;1.70;;
48578;SDS011;34357;51.948;6.132;2022-09-03T18:06:23;5.82;;;1.83;;
48578;SDS011;34357;51.948;6.132;2022-09-03T18:11:46;3.97;;;1.85;;
48578;SDS011;34357;51.948;6.132;2022-09-03T18:14:41;3.92;;;1.88;;
48578;SDS011;34357;51.948;6.132;2022-09-03T18:20:04;2.45;;;1.80;;
48578;SDS011;34357;51.948;6.132;2022-09-03T18:23:01;4.03;;;1.92;;
48578;SDS011;34357;51.948;6.132;2022-09-03T18:25:56;3.05;;;2.10;;
48578;SDS011;34357;51.948;6.132;2022-09-03T18:28:53;6.57;;;1.88;;
48578;SDS011;34357;51.948;6.132;2022-09-03T18:31:43;4.60;;;1.95;;
48578;SDS011;34357;51.948;6.132;2022-09-03T18:34:31;3.25;;;1.80;;
48578;SDS011;34357;51.948;6.132;2022-09-03T18:37:19;3.10;;;1.92;;
48578;SDS011;34357;51.948;6.132;2022-09-03T18:40:06;5.53;;;1.92;;
48578;SDS011;34357;51.948;6.132;2022-09-03T18:46:10;4.38;;;2.38;;
48578;SDS011;34357;51.948;6.132;2022-09-03T18:52:34;7.35;;;2.67;;
48578;SDS011;34357;51.948;6.132;2022-09-03T19:04:23;8.05;;;2.75;;
48578;SDS011;34357;51.948;6.132;2022-09-03T19:07:42;6.28;;;2.45;;
48578;SDS011;34357;51.948;6.132;2022-09-03T19:11:08;4.45;;;2.38;;
48578;SDS011;34357;51.948;6.132;2022-09-03T19:14:09;5.82;;;2.35;;
48578;SDS011;34357;51.948;6.132;2022-09-03T19:17:09;2.78;;;2.22;;
48578;SDS011;34357;51.948;6.132;2022-09-03T19:20:08;10.82;;;3.80;;
48578;SDS011;34357;51.948;6.132;2022-09-03T19:23:03;7.70;;;2.42;;
48578;SDS011;34357;51.948;6.132;2022-09-03T19:25:47;3.58;;;2.65;;
48578;SDS011;34357;51.948;6.132;2022-09-03T19:28:35;14.90;;;2.83;;
48578;SDS011;34357;51.948;6.132;2022-09-03T19:40:32;8.95;;;3.85;;
48578;SDS011;34357;51.948;6.132;2022-09-03T19:46:35;8.95;;;4.78;;
48578;SDS011;34357;51.948;6.132;2022-09-03T19:52:27;7.80;;;4.05;;
48578;SDS011;34357;51.948;6.132;2022-09-03T19:55:33;6.93;;;3.67;;
48578;SDS011;34357;51.948;6.132;2022-09-03T19:58:22;8.15;;;3.42;;
48578;SDS011;34357;51.948;6.132;2022-09-03T20:01:11;6.72;;;3.35;;
48578;SDS011;34357;51.948;6.132;2022-09-03T20:03:57;5.82;;;3.50;;
48578;SDS011;34357;51.948;6.132;2022-09-03T20:06:44;6.35;;;3.17;;
48578;SDS011;34357;51.948;6.132;2022-09-03T20:09:31;9.63;;;3.38;;
48578;SDS011;34357;51.948;6.132;2022-09-03T20:12:19;7.88;;;3.40;;
48578;SDS011;34357;51.948;6.132;2022-09-03T20:14:46;9.50;;;3.45;;
48578;SDS011;34357;51.948;6.132;2022-09-03T20:20:02;10.98;;;4.07;;
48578;SDS011;34357;51.948;6.132;2022-09-03T20:25:43;8.35;;;4.30;;
48578;SDS011;34357;51.948;6.132;2022-09-03T20:28:17;8.02;;;4.10;;
48578;SDS011;34357;51.948;6.132;2022-09-03T20:30:56;13.82;;;4.40;;
48578;SDS011;34357;51.948;6.132;2022-09-03T20:39:05;10.15;;;4.90;;
48578;SDS011;34357;51.948;6.132;2022-09-03T20:42:02;8.35;;;5.10;;
48578;SDS011;34357;51.948;6.132;2022-09-03T20:44:59;15.27;;;5.57;;
48578;SDS011;34357;51.948;6.132;2022-09-03T20:50:30;9.32;;;4.85;;
48578;SDS011;34357;51.948;6.132;2022-09-03T20:55:48;7.93;;;4.60;;
48578;SDS011;34357;51.948;6.132;2022-09-03T20:58:19;7.32;;;4.40;;
48578;SDS011;34357;51.948;6.132;2022-09-03T21:14:31;7.35;;;4.35;;
48578;SDS011;34357;51.948;6.132;2022-09-03T21:23:05;9.73;;;4.40;;
48578;SDS011;34357;51.948;6.132;2022-09-03T21:25:50;8.68;;;4.22;;
48578;SDS011;34357;51.948;6.132;2022-09-03T21:31:43;6.68;;;3.90;;
48578;SDS011;34357;51.948;6.132;2022-09-03T21:34:34;6.93;;;4.28;;
48578;SDS011;34357;51.948;6.132;2022-09-03T21:37:11;6.15;;;3.67;;
48578;SDS011;34357;51.948;6.132;2022-09-03T21:39:42;10.00;;;4.70;;
48578;SDS011;34357;51.948;6.132;2022-09-03T21:42:12;12.05;;;4.60;;
48578;SDS011;34357;51.948;6.132;2022-09-03T21:44:45;9.63;;;6.65;;
48578;SDS011;34357;51.948;6.132;2022-09-03T21:47:18;9.23;;;4.68;;
48578;SDS011;34357;51.948;6.132;2022-09-03T21:49:57;10.82;;;4.30;;
48578;SDS011;34357;51.948;6.132;2022-09-03T21:52:30;5.20;;;4.00;;
48578;SDS011;34357;51.948;6.132;2022-09-03T22:00:41;8.07;;;3.88;;
48578;SDS011;34357;51.948;6.132;2022-09-03T22:03:08;8.38;;;3.78;;
48578;SDS011;34357;51.948;6.132;2022-09-03T22:05:54;9.88;;;4.00;;